createdAt,value
2023-11-01T00:02:29.847Z,804.88
2023-11-01T00:09:31.433Z,813.90
2023-11-01T00:16:33.038Z,802.17
2023-11-01T00:23:35.115Z,813.65
2023-11-01T00:30:36.706Z,809.25
2023-11-01T00:37:38.463Z,798.72
2023-11-01T00:44:40.733Z,799.40
2023-11-01T00:51:42.438Z,816.63
2023-11-01T00:58:44.100Z,802.83
2023-11-01T01:05:45.827Z,823.33
2023-11-01T01:12:47.457Z,795.40
2023-11-01T01:19:49.149Z,806.92
2023-11-01T01:26:50.799Z,802.97
2023-11-01T01:33:52.395Z,791.17
2023-11-01T01:40:53.976Z,795.85
2023-11-01T01:47:55.734Z,785.90
2023-11-01T01:54:57.336Z,785.35
2023-11-01T02:02:00.752Z,787.72
2023-11-01T02:09:04.337Z,778.50
2023-11-01T02:16:06.409Z,780.88
2023-11-01T02:23:11.890Z,781.95
2023-11-01T02:30:17.885Z,784.15
2023-11-01T02:37:19.496Z,793.92
2023-11-01T02:44:21.142Z,780.97
2023-11-01T02:51:22.812Z,778.85
2023-11-01T02:58:26.102Z,785.28
2023-11-01T03:05:29.297Z,778.92
2023-11-01T03:12:31.145Z,778.15
2023-11-01T03:19:32.782Z,778.08
2023-11-01T03:26:35.202Z,777.33
2023-11-01T03:33:36.831Z,777.45
2023-11-01T03:40:38.896Z,774.10
2023-11-01T03:47:40.821Z,780.75
2023-11-01T03:54:42.405Z,781.97
2023-11-01T04:01:44.042Z,768.05
2023-11-01T04:08:45.690Z,773.85
2023-11-01T04:15:47.289Z,769.88
2023-11-01T04:22:48.938Z,769.25
2023-11-01T04:29:55.237Z,762.83
2023-11-01T04:36:56.973Z,772.28
2023-11-01T04:43:58.570Z,760.75
2023-11-01T04:51:00.959Z,767.85
2023-11-01T04:58:04.084Z,769.33
2023-11-01T05:05:07.342Z,757.38
2023-11-01T05:12:09.380Z,768.92
2023-11-01T05:19:10.997Z,762.58
2023-11-01T05:26:16.143Z,750.50
2023-11-01T05:33:20.740Z,753.28
2023-11-01T05:40:23.761Z,752.70
2023-11-01T05:47:25.351Z,754.60
2023-11-01T05:54:27.448Z,754.05
2023-11-01T06:01:29.100Z,770.00
2023-11-01T06:08:30.758Z,761.47
2023-11-01T06:15:32.426Z,765.97
2023-11-01T06:22:34.356Z,760.72
2023-11-01T06:29:36.627Z,762.40
2023-11-01T06:36:38.357Z,763.80
2023-11-01T06:43:39.928Z,759.08
2023-11-01T06:50:42.022Z,766.80
2023-11-01T06:57:43.774Z,755.83
2023-11-01T07:04:45.411Z,765.22
2023-11-01T07:11:47.051Z,770.83
2023-11-01T07:18:48.760Z,761.05
2023-11-01T07:25:50.640Z,771.80
2023-11-01T07:32:53.701Z,763.17
2023-11-01T07:39:55.401Z,772.47
2023-11-01T07:46:56.987Z,765.25
2023-11-01T07:53:58.631Z,758.03
2023-11-01T08:01:00.365Z,763.42
2023-11-01T08:08:01.979Z,767.20
2023-11-01T08:15:03.827Z,771.20
2023-11-01T08:22:05.596Z,767.90
2023-11-01T08:29:07.665Z,768.17
2023-11-01T08:36:10.796Z,773.45
2023-11-01T08:43:12.378Z,780.92
2023-11-01T08:50:14.746Z,785.92
2023-11-01T08:57:16.626Z,796.95
2023-11-01T09:04:18.221Z,814.33
2023-11-01T09:11:24.313Z,822.22
2023-11-01T09:18:26.066Z,833.35
2023-11-01T09:25:28.521Z,824.92
2023-11-01T09:32:30.309Z,828.05
2023-11-01T09:39:32.102Z,824.15
2023-11-01T09:46:33.739Z,813.35
2023-11-01T09:53:36.358Z,816.13
2023-11-01T10:00:37.936Z,823.42
2023-11-01T10:07:39.500Z,816.65
2023-11-01T10:14:41.235Z,822.20
2023-11-01T10:21:42.830Z,829.05
2023-11-01T10:28:44.549Z,839.63
2023-11-01T10:36:00.323Z,844.72
2023-11-01T10:43:05.673Z,851.70
2023-11-01T10:50:07.518Z,864.17
2023-11-01T10:57:09.191Z,892.42
2023-11-01T11:04:25.264Z,903.13
2023-11-01T11:11:26.950Z,907.42
2023-11-01T11:18:30.020Z,908.38
2023-11-01T11:25:46.895Z,920.42
2023-11-01T11:32:48.608Z,932.25
2023-11-01T11:39:55.038Z,947.75
2023-11-01T11:47:00.496Z,967.05
2023-11-01T11:54:15.368Z,981.17
2023-11-01T12:01:24.589Z,965.28
2023-11-01T12:08:39.154Z,974.13
2023-11-01T12:15:42.370Z,971.30
2023-11-01T12:22:45.528Z,983.22
2023-11-01T12:29:48.332Z,986.97
2023-11-01T12:37:11.036Z,1025.78
2023-11-01T12:44:12.683Z,1022.83
2023-11-01T12:51:14.305Z,1007.03
2023-11-01T12:58:15.917Z,1008.78
2023-11-01T13:05:18.061Z,1026.07
2023-11-01T13:12:19.806Z,1018.28
2023-11-01T13:19:21.632Z,1021.65
2023-11-01T13:26:23.196Z,1011.65
2023-11-01T13:33:24.975Z,1042.80
2023-11-01T13:40:26.650Z,1003.03
2023-11-01T13:47:30.413Z,996.97
2023-11-01T13:54:33.686Z,997.92
2023-11-01T14:01:35.236Z,991.42
2023-11-01T14:08:36.891Z,992.88
2023-11-01T14:15:41.822Z,980.17
2023-11-01T14:22:43.902Z,970.95
2023-11-01T14:29:47.433Z,975.42
2023-11-01T14:36:49.579Z,966.33
2023-11-01T14:43:51.168Z,959.38
2023-11-01T14:50:52.881Z,962.90
2023-11-01T14:57:54.555Z,954.15
2023-11-01T15:04:56.148Z,951.25
2023-11-01T15:11:57.887Z,951.88
2023-11-01T15:18:59.546Z,948.30
2023-11-01T15:26:01.858Z,942.80
2023-11-01T15:33:03.809Z,941.28
2023-11-01T15:40:07.348Z,945.42
2023-11-01T15:47:09.670Z,944.10
2023-11-01T15:54:11.352Z,944.70
2023-11-01T16:01:16.022Z,931.22
2023-11-01T16:08:17.848Z,930.60
2023-11-01T16:15:19.460Z,933.70
2023-11-01T16:22:22.015Z,934.30
2023-11-01T16:29:23.752Z,931.90
2023-11-01T16:36:25.440Z,923.42
2023-11-01T16:43:27.066Z,921.95
2023-11-01T16:50:28.704Z,926.75
2023-11-01T16:57:30.338Z,919.35
2023-11-01T17:04:34.140Z,916.20
2023-11-01T17:11:35.859Z,919.75
2023-11-01T17:18:39.526Z,919.47
2023-11-01T17:25:45.199Z,917.50
2023-11-01T17:32:46.853Z,911.25
2023-11-01T17:39:52.374Z,913.70
2023-11-01T17:46:55.677Z,920.58
2023-11-01T17:53:57.357Z,921.33
2023-11-01T18:00:58.973Z,928.35
2023-11-01T18:08:00.978Z,915.72
2023-11-01T18:15:04.513Z,913.50
2023-11-01T18:22:40.196Z,918.10
2023-11-01T18:29:41.822Z,911.72
2023-11-01T18:36:48.157Z,918.30
2023-11-01T18:43:49.762Z,907.10
2023-11-01T18:50:51.336Z,914.58
2023-11-01T18:57:52.934Z,906.70
2023-11-01T19:04:57.251Z,910.03
2023-11-01T19:11:58.929Z,905.05
2023-11-01T19:19:00.663Z,902.80
2023-11-01T19:26:03.638Z,909.78
2023-11-01T19:33:05.713Z,901.00
2023-11-01T19:40:09.164Z,897.45
2023-11-01T19:47:10.740Z,898.15
2023-11-01T19:54:12.326Z,901.72
2023-11-01T20:01:14.722Z,902.08
2023-11-01T20:08:16.659Z,894.45
2023-11-01T20:15:19.731Z,906.20
2023-11-01T20:22:21.366Z,901.60
2023-11-01T20:29:23.001Z,901.03
2023-11-01T20:36:24.609Z,894.63
2023-11-01T20:43:26.876Z,897.30
2023-11-01T20:50:30.444Z,891.75
2023-11-01T20:57:33.154Z,891.00
2023-11-01T21:04:34.793Z,887.95
2023-11-01T21:11:36.474Z,887.53
2023-11-01T21:18:38.233Z,891.55
2023-11-01T21:25:39.871Z,885.58
2023-11-01T21:32:41.467Z,879.72
2023-11-01T21:39:44.163Z,881.85
2023-11-01T21:46:45.885Z,877.70
2023-11-01T21:53:47.621Z,878.65
2023-11-01T22:00:59.797Z,882.22
2023-11-01T22:08:01.713Z,878.25
2023-11-01T22:15:04.373Z,868.92
2023-11-01T22:22:19.158Z,880.22
2023-11-01T22:29:33.876Z,880.92
2023-11-01T22:36:55.632Z,873.38
2023-11-01T22:43:57.249Z,880.03
2023-11-01T22:50:58.814Z,878.90
2023-11-01T22:58:00.396Z,882.15
2023-11-01T23:05:02.194Z,874.97
2023-11-01T23:12:04.468Z,876.38
2023-11-01T23:19:10.205Z,874.75
2023-11-01T23:26:13.158Z,873.22
2023-11-01T23:33:14.978Z,863.42
2023-11-01T23:40:18.744Z,869.38
2023-11-01T23:47:25.312Z,864.40
2023-11-01T23:54:27.544Z,868.45
